sensor_id;sensor_type;location;lat;lon;timestamp;pressure;altitude;pressure_sealevel;temperature;humidity
43119;BME280;28729;49.838;8.650;2023-04-01T00:01:28;98174.16;;;10.12;100.00
43119;BME280;28729;49.838;8.650;2023-04-01T00:05:30;98162.84;;;10.08;100.00
43119;BME280;28729;49.838;8.650;2023-04-01T00:09:32;98170.31;;;10.08;100.00
43119;BME280;28729;49.838;8.650;2023-04-01T00:13:34;98168.44;;;10.03;100.00
43119;BME280;28729;49.838;8.650;2023-04-01T00:17:36;98154.44;;;9.99;100.00
43119;BME280;28729;49.838;8.650;2023-04-01T00:21:38;98157.72;;;9.96;100.00
43119;BME280;28729;49.838;8.650;2023-04-01T00:25:39;98166.50;;;10.03;100.00
43119;BME280;28729;49.838;8.650;2023-04-01T00:29:48;98148.59;;;10.06;100.00
43119;BME280;28729;49.838;8.650;2023-04-01T00:33:51;98144.47;;;10.03;100.00
43119;BME280;28729;49.838;8.650;2023-04-01T00:37:53;98141.19;;;10.01;100.00
43119;BME280;28729;49.838;8.650;2023-04-01T00:41:54;98146.91;;;10.05;100.00
43119;BME280;28729;49.838;8.650;2023-04-01T00:45:58;98138.16;;;10.03;100.00
43119;BME280;28729;49.838;8.650;2023-04-01T00:50:00;98141.75;;;9.98;100.00
43119;BME280;28729;49.838;8.650;2023-04-01T00:54:02;98140.66;;;9.99;100.00
43119;BME280;28729;49.838;8.650;2023-04-01T00:58:08;98138.19;;;9.98;100.00
43119;BME280;28729;49.838;8.650;2023-04-01T01:02:13;98137.03;;;10.04;100.00
43119;BME280;28729;49.838;8.650;2023-04-01T01:10:38;98145.03;;;10.06;100.00
43119;BME280;28729;49.838;8.650;2023-04-01T01:14:55;98147.72;;;10.11;100.00
43119;BME280;28729;49.838;8.650;2023-04-01T01:23:46;98139.41;;;10.16;100.00
43119;BME280;28729;49.838;8.650;2023-04-01T01:32:12;98140.47;;;10.20;100.00
43119;BME280;28729;49.838;8.650;2023-04-01T01:36:19;98126.44;;;10.21;100.00
43119;BME280;28729;49.838;8.650;2023-04-01T01:40:24;98127.84;;;10.19;100.00
43119;BME280;28729;49.838;8.650;2023-04-01T01:44:28;98120.16;;;10.16;100.00
43119;BME280;28729;49.838;8.650;2023-04-01T01:48:33;98118.47;;;10.20;100.00
43119;BME280;28729;49.838;8.650;2023-04-01T01:52:36;98117.63;;;10.19;100.00
43119;BME280;28729;49.838;8.650;2023-04-01T01:56:38;98120.69;;;10.18;100.00
43119;BME280;28729;49.838;8.650;2023-04-01T02:00:43;98111.84;;;10.21;100.00
43119;BME280;28729;49.838;8.650;2023-04-01T02:04:47;98119.22;;;10.25;100.00
43119;BME280;28729;49.838;8.650;2023-04-01T02:09:03;98119.81;;;10.22;100.00
43119;BME280;28729;49.838;8.650;2023-04-01T02:13:17;98121.22;;;10.20;100.00
43119;BME280;28729;49.838;8.650;2023-04-01T02:17:27;98118.22;;;10.16;100.00
43119;BME280;28729;49.838;8.650;2023-04-01T02:21:31;98126.25;;;10.13;100.00
43119;BME280;28729;49.838;8.650;2023-04-01T02:25:35;98127.09;;;10.08;100.00
43119;BME280;28729;49.838;8.650;2023-04-01T02:29:37;98126.00;;;10.09;100.00
43119;BME280;28729;49.838;8.650;2023-04-01T02:33:43;98126.03;;;10.04;100.00
43119;BME280;28729;49.838;8.650;2023-04-01T02:37:45;98122.53;;;9.93;100.00
43119;BME280;28729;49.838;8.650;2023-04-01T02:41:50;98136.59;;;9.87;100.00
43119;BME280;28729;49.838;8.650;2023-04-01T02:45:51;98135.25;;;9.84;100.00
43119;BME280;28729;49.838;8.650;2023-04-01T02:49:53;98122.34;;;9.85;100.00
43119;BME280;28729;49.838;8.650;2023-04-01T02:54:00;98118.50;;;9.80;100.00
43119;BME280;28729;49.838;8.650;2023-04-01T02:58:03;98112.09;;;9.90;100.00
43119;BME280;28729;49.838;8.650;2023-04-01T03:02:05;98115.41;;;9.87;100.00
43119;BME280;28729;49.838;8.650;2023-04-01T03:06:10;98110.78;;;9.82;100.00
43119;BME280;28729;49.838;8.650;2023-04-01T03:10:13;98104.47;;;9.82;100.00
43119;BME280;28729;49.838;8.650;2023-04-01T03:14:14;98110.03;;;9.72;100.00
43119;BME280;28729;49.838;8.650;2023-04-01T03:18:16;98113.94;;;9.66;100.00
43119;BME280;28729;49.838;8.650;2023-04-01T03:22:18;98102.94;;;9.66;100.00
43119;BME280;28729;49.838;8.650;2023-04-01T03:26:22;98110.09;;;9.67;100.00
43119;BME280;28729;49.838;8.650;2023-04-01T03:30:24;98109.53;;;9.65;100.00
43119;BME280;28729;49.838;8.650;2023-04-01T03:34:26;98114.50;;;9.63;100.00
43119;BME280;28729;49.838;8.650;2023-04-01T03:38:28;98115.06;;;9.59;100.00
43119;BME280;28729;49.838;8.650;2023-04-01T03:42:30;98103.53;;;9.57;100.00
43119;BME280;28729;49.838;8.650;2023-04-01T03:46:33;98109.88;;;9.53;100.00
43119;BME280;28729;49.838;8.650;2023-04-01T03:50:34;98118.72;;;9.50;100.00
43119;BME280;28729;49.838;8.650;2023-04-01T03:54:37;98115.09;;;9.54;100.00
43119;BME280;28729;49.838;8.650;2023-04-01T03:58:39;98120.03;;;9.57;100.00
43119;BME280;28729;49.838;8.650;2023-04-01T04:02:42;98111.50;;;9.59;100.00
43119;BME280;28729;49.838;8.650;2023-04-01T04:06:46;98113.44;;;9.58;100.00
43119;BME280;28729;49.838;8.650;2023-04-01T04:10:55;98115.59;;;9.67;100.00
43119;BME280;28729;49.838;8.650;2023-04-01T04:14:57;98111.97;;;9.71;100.00
43119;BME280;28729;49.838;8.650;2023-04-01T04:18:59;98104.84;;;9.65;100.00
43119;BME280;28729;49.838;8.650;2023-04-01T04:23:01;98115.78;;;9.75;100.00
43119;BME280;28729;49.838;8.650;2023-04-01T04:27:04;98101.19;;;9.80;100.00
43119;BME280;28729;49.838;8.650;2023-04-01T04:31:06;98103.38;;;9.78;100.00
43119;BME280;28729;49.838;8.650;2023-04-01T04:35:10;98102.81;;;9.81;100.00
43119;BME280;28729;49.838;8.650;2023-04-01T04:39:11;98102.81;;;9.81;100.00
43119;BME280;28729;49.838;8.650;2023-04-01T04:43:16;98105.28;;;9.82;100.00
43119;BME280;28729;49.838;8.650;2023-04-01T04:47:18;98104.13;;;9.89;100.00
43119;BME280;28729;49.838;8.650;2023-04-01T04:51:20;98101.38;;;9.89;100.00
43119;BME280;28729;49.838;8.650;2023-04-01T04:55:22;98103.84;;;9.90;100.00
43119;BME280;28729;49.838;8.650;2023-04-01T04:59:37;98108.25;;;9.91;100.00
43119;BME280;28729;49.838;8.650;2023-04-01T05:03:46;98104.94;;;9.94;100.00
43119;BME280;28729;49.838;8.650;2023-04-01T05:07:48;98105.50;;;9.91;100.00
43119;BME280;28729;49.838;8.650;2023-04-01T05:11:50;98105.78;;;9.90;100.00
43119;BME280;28729;49.838;8.650;2023-04-01T05:15:53;98105.78;;;9.90;100.00
43119;BME280;28729;49.838;8.650;2023-04-01T05:19:55;98103.09;;;9.85;100.00
43119;BME280;28729;49.838;8.650;2023-04-01T05:23:57;98111.50;;;9.93;100.00
43119;BME280;28729;49.838;8.650;2023-04-01T05:27:59;98109.81;;;10.02;100.00
43119;BME280;28729;49.838;8.650;2023-04-01T05:32:01;98108.72;;;9.98;100.00
43119;BME280;28729;49.838;8.650;2023-04-01T05:36:14;98107.09;;;9.97;100.00
43119;BME280;28729;49.838;8.650;2023-04-01T05:40:17;98090.06;;;9.95;100.00
43119;BME280;28729;49.838;8.650;2023-04-01T05:44:19;98101.34;;;9.94;100.00
43119;BME280;28729;49.838;8.650;2023-04-01T05:48:43;98099.69;;;9.93;100.00
43119;BME280;28729;49.838;8.650;2023-04-01T05:52:45;98096.63;;;9.99;100.00
43119;BME280;28729;49.838;8.650;2023-04-01T05:56:46;98096.56;;;10.04;100.00
43119;BME280;28729;49.838;8.650;2023-04-01T06:00:49;98088.94;;;9.96;100.00
43119;BME280;28729;49.838;8.650;2023-04-01T06:09:29;98099.28;;;10.10;100.00
43119;BME280;28729;49.838;8.650;2023-04-01T06:27:17;98097.28;;;10.20;100.00
43119;BME280;28729;49.838;8.650;2023-04-01T06:36:14;98093.41;;;10.21;100.00
43119;BME280;28729;49.838;8.650;2023-04-01T06:54:17;98098.03;;;10.26;100.00
43119;BME280;28729;49.838;8.650;2023-04-01T06:58:42;98099.19;;;10.20;100.00
43119;BME280;28729;49.838;8.650;2023-04-01T07:02:57;98100.03;;;10.20;100.00
43119;BME280;28729;49.838;8.650;2023-04-01T07:07:24;98105.03;;;10.13;100.00
43119;BME280;28729;49.838;8.650;2023-04-01T07:11:35;98111.03;;;10.20;100.00
43119;BME280;28729;49.838;8.650;2023-04-01T07:16:48;98104.75;;;10.15;100.00
43119;BME280;28729;49.838;8.650;2023-04-01T07:20:54;98100.03;;;10.20;100.00
43119;BME280;28729;49.838;8.650;2023-04-01T07:25:02;98100.53;;;10.27;100.00
43119;BME280;28729;49.838;8.650;2023-04-01T07:29:12;98094.03;;;10.47;100.00
43119;BME280;28729;49.838;8.650;2023-04-01T07:33:28;98109.56;;;10.62;100.00
43119;BME280;28729;49.838;8.650;2023-04-01T07:46:18;98120.19;;;10.98;100.00
43119;BME280;28729;49.838;8.650;2023-04-01T07:50:27;98111.13;;;11.16;100.00
43119;BME280;28729;49.838;8.650;2023-04-01T07:54:39;98117.69;;;11.21;100.00
43119;BME280;28729;49.838;8.650;2023-04-01T07:58:45;98117.19;;;11.18;100.00
43119;BME280;28729;49.838;8.650;2023-04-01T08:07:47;98118.63;;;11.11;100.00
43119;BME280;28729;49.838;8.650;2023-04-01T08:12:27;98128.44;;;11.22;100.00
43119;BME280;28729;49.838;8.650;2023-04-01T08:16:57;98118.38;;;11.31;100.00
43119;BME280;28729;49.838;8.650;2023-04-01T08:21:15;98120.44;;;11.21;100.00
43119;BME280;28729;49.838;8.650;2023-04-01T08:25:24;98127.44;;;11.13;100.00
43119;BME280;28729;49.838;8.650;2023-04-01T08:29:39;98131.03;;;10.89;100.00
43119;BME280;28729;49.838;8.650;2023-04-01T08:33:46;98136.41;;;10.76;100.00
43119;BME280;28729;49.838;8.650;2023-04-01T08:37:50;98138.47;;;10.65;100.00
43119;BME280;28729;49.838;8.650;2023-04-01T08:43:02;98141.78;;;10.62;100.00
43119;BME280;28729;49.838;8.650;2023-04-01T08:46:55;98140.56;;;10.44;100.00
43119;BME280;28729;49.838;8.650;2023-04-01T08:51:16;98135.50;;;10.27;100.00
43119;BME280;28729;49.838;8.650;2023-04-01T09:09:19;98144.25;;;10.34;100.00
43119;BME280;28729;49.838;8.650;2023-04-01T09:13:51;98145.72;;;10.21;100.00
43119;BME280;28729;49.838;8.650;2023-04-01T09:27:28;98160.75;;;10.34;100.00
43119;BME280;28729;49.838;8.650;2023-04-01T09:36:45;98167.03;;;10.40;100.00
43119;BME280;28729;49.838;8.650;2023-04-01T09:40:57;98178.44;;;10.28;100.00
43119;BME280;28729;49.838;8.650;2023-04-01T09:49:43;98178.56;;;10.08;100.00
43119;BME280;28729;49.838;8.650;2023-04-01T10:21:05;98189.50;;;10.18;100.00
43119;BME280;28729;49.838;8.650;2023-04-01T10:43:31;98194.50;;;10.50;100.00
43119;BME280;28729;49.838;8.650;2023-04-01T10:52:31;98190.84;;;10.89;100.00
43119;BME280;28729;49.838;8.650;2023-04-01T11:07:26;98196.94;;;11.10;100.00
43119;BME280;28729;49.838;8.650;2023-04-01T11:15:44;98209.59;;;11.11;100.00
43119;BME280;28729;49.838;8.650;2023-04-01T11:20:20;98215.13;;;11.11;100.00
43119;BME280;28729;49.838;8.650;2023-04-01T11:33:44;98216.88;;;11.02;100.00
43119;BME280;28729;49.838;8.650;2023-04-01T11:42:38;98219.31;;;11.03;100.00
43119;BME280;28729;49.838;8.650;2023-04-01T11:47:27;98225.19;;;10.97;100.00
43119;BME280;28729;49.838;8.650;2023-04-01T11:52:00;98234.22;;;11.02;100.00
43119;BME280;28729;49.838;8.650;2023-04-01T12:04:58;98248.19;;;10.82;100.00
43119;BME280;28729;49.838;8.650;2023-04-01T12:13:49;98230.31;;;10.79;100.00
43119;BME280;28729;49.838;8.650;2023-04-01T12:27:11;98240.31;;;11.28;100.00
43119;BME280;28729;49.838;8.650;2023-04-01T12:31:25;98244.22;;;11.46;100.00
43119;BME280;28729;49.838;8.650;2023-04-01T12:40:16;98243.50;;;11.59;100.00
43119;BME280;28729;49.838;8.650;2023-04-01T12:53:00;98251.56;;;11.56;100.00
43119;BME280;28729;49.838;8.650;2023-04-01T13:02:00;98256.84;;;11.52;100.00
43119;BME280;28729;49.838;8.650;2023-04-01T13:11:00;98269.97;;;11.12;100.00
43119;BME280;28729;49.838;8.650;2023-04-01T13:19:20;98276.25;;;11.18;100.00
43119;BME280;28729;49.838;8.650;2023-04-01T13:23:35;98274.25;;;11.24;100.00
43119;BME280;28729;49.838;8.650;2023-04-01T13:27:44;98279.25;;;11.22;100.00
43119;BME280;28729;49.838;8.650;2023-04-01T13:40:30;98283.41;;;11.19;100.00
43119;BME280;28729;49.838;8.650;2023-04-01T13:45:00;98289.41;;;11.26;100.00
43119;BME280;28729;49.838;8.650;2023-04-01T13:53:34;98292.16;;;11.50;100.00
43119;BME280;28729;49.838;8.650;2023-04-01T14:02:29;98286.66;;;11.74;100.00
43119;BME280;28729;49.838;8.650;2023-04-01T14:10:55;98300.75;;;11.97;100.00
43119;BME280;28729;49.838;8.650;2023-04-01T14:19:30;98308.88;;;11.88;100.00
43119;BME280;28729;49.838;8.650;2023-04-01T14:23:49;98304.50;;;11.82;100.00
43119;BME280;28729;49.838;8.650;2023-04-01T14:28:00;98314.25;;;11.74;100.00
43119;BME280;28729;49.838;8.650;2023-04-01T14:41:06;98324.19;;;11.75;100.00
43119;BME280;28729;49.838;8.650;2023-04-01T14:49:39;98320.47;;;11.61;100.00
43119;BME280;28729;49.838;8.650;2023-04-01T14:54:01;98327.44;;;11.53;100.00
43119;BME280;28729;49.838;8.650;2023-04-01T15:02:18;98332.69;;;11.55;100.00
43119;BME280;28729;49.838;8.650;2023-04-01T15:11:33;98336.63;;;11.49;100.00
43119;BME280;28729;49.838;8.650;2023-04-01T15:15:24;98343.56;;;11.41;100.00
43119;BME280;28729;49.838;8.650;2023-04-01T15:19:58;98353.31;;;11.33;100.00
43119;BME280;28729;49.838;8.650;2023-04-01T15:24:17;98352.81;;;11.26;100.00
43119;BME280;28729;49.838;8.650;2023-04-01T15:32:38;98354.03;;;11.44;100.00
43119;BME280;28729;49.838;8.650;2023-04-01T15:36:44;98371.22;;;11.60;100.00
43119;BME280;28729;49.838;8.650;2023-04-01T15:45:07;98368.44;;;11.65;100.00
43119;BME280;28729;49.838;8.650;2023-04-01T15:53:49;98374.94;;;11.74;100.00
43119;BME280;28729;49.838;8.650;2023-04-01T16:07:11;98390.50;;;11.65;100.00
43119;BME280;28729;49.838;8.650;2023-04-01T16:11:35;98395.00;;;11.56;100.00
43119;BME280;28729;49.838;8.650;2023-04-01T16:16:07;98398.97;;;11.45;100.00
43119;BME280;28729;49.838;8.650;2023-04-01T16:20:20;98398.16;;;11.44;100.00
43119;BME280;28729;49.838;8.650;2023-04-01T16:28:52;98411.16;;;11.38;100.00
43119;BME280;28729;49.838;8.650;2023-04-01T16:33:28;98415.13;;;11.27;100.00
43119;BME280;28729;49.838;8.650;2023-04-01T16:42:20;98425.13;;;11.18;100.00
43119;BME280;28729;49.838;8.650;2023-04-01T16:46:34;98428.44;;;11.15;100.00
43119;BME280;28729;49.838;8.650;2023-04-01T16:54:53;98428.50;;;11.10;100.00
43119;BME280;28729;49.838;8.650;2023-04-01T16:59:13;98437.09;;;11.03;100.00
43119;BME280;28729;49.838;8.650;2023-04-01T17:03:22;98440.75;;;10.93;100.00
43119;BME280;28729;49.838;8.650;2023-04-01T17:07:48;98445.13;;;10.94;100.00
43119;BME280;28729;49.838;8.650;2023-04-01T17:12:06;98453.69;;;10.98;100.00
43119;BME280;28729;49.838;8.650;2023-04-01T17:16:20;98445.41;;;10.98;100.00
43119;BME280;28729;49.838;8.650;2023-04-01T17:34:16;98472.19;;;10.87;100.00
43119;BME280;28729;49.838;8.650;2023-04-01T17:38:40;98474.69;;;10.89;100.00
43119;BME280;28729;49.838;8.650;2023-04-01T17:51:35;98503.06;;;10.84;100.00
43119;BME280;28729;49.838;8.650;2023-04-01T17:56:01;98508.88;;;10.83;100.00
43119;BME280;28729;49.838;8.650;2023-04-01T18:17:41;98541.78;;;10.54;100.00
43119;BME280;28729;49.838;8.650;2023-04-01T18:21:52;98562.44;;;10.51;100.00
43119;BME280;28729;49.838;8.650;2023-04-01T18:26:24;98558.88;;;10.45;100.00
43119;BME280;28729;49.838;8.650;2023-04-01T18:30:32;98571.81;;;10.45;100.00
43119;BME280;28729;49.838;8.650;2023-04-01T18:34:42;98574.84;;;10.43;100.00
43119;BME280;28729;49.838;8.650;2023-04-01T18:38:57;98585.34;;;10.41;100.00
43119;BME280;28729;49.838;8.650;2023-04-01T18:51:38;98599.06;;;10.26;100.00
43119;BME280;28729;49.838;8.650;2023-04-01T18:55:57;98607.63;;;10.24;100.00
43119;BME280;28729;49.838;8.650;2023-04-01T19:00:13;98608.75;;;10.23;100.00
43119;BME280;28729;49.838;8.650;2023-04-01T19:04:28;98616.69;;;10.20;100.00
43119;BME280;28729;49.838;8.650;2023-04-01T19:08:34;98628.28;;;10.17;100.00
43119;BME280;28729;49.838;8.650;2023-04-01T19:17:10;98635.72;;;10.16;100.00
43119;BME280;28729;49.838;8.650;2023-04-01T19:21:56;98638.19;;;10.13;100.00
43119;BME280;28729;49.838;8.650;2023-04-01T19:26:02;98629.38;;;10.11;100.00
43119;BME280;28729;49.838;8.650;2023-04-01T19:34:53;98647.56;;;10.07;100.00
43119;BME280;28729;49.838;8.650;2023-04-01T19:43:37;98653.03;;;10.01;100.00
43119;BME280;28729;49.838;8.650;2023-04-01T19:56:33;98665.19;;;10.06;100.00
43119;BME280;28729;49.838;8.650;2023-04-01T20:00:42;98669.81;;;10.05;100.00
43119;BME280;28729;49.838;8.650;2023-04-01T20:04:53;98682.50;;;10.06;100.00
43119;BME280;28729;49.838;8.650;2023-04-01T20:13:17;98689.38;;;9.98;100.00
43119;BME280;28729;49.838;8.650;2023-04-01T20:17:38;98683.84;;;9.93;100.00
43119;BME280;28729;49.838;8.650;2023-04-01T20:21:47;98699.53;;;9.93;100.00
43119;BME280;28729;49.838;8.650;2023-04-01T20:25:54;98701.19;;;9.89;100.00
43119;BME280;28729;49.838;8.650;2023-04-01T20:43:14;98719.06;;;9.81;100.00
43119;BME280;28729;49.838;8.650;2023-04-01T20:51:43;98724.00;;;9.84;100.00
43119;BME280;28729;49.838;8.650;2023-04-01T20:56:10;98732.00;;;9.86;100.00
43119;BME280;28729;49.838;8.650;2023-04-01T21:01:07;98735.88;;;9.85;100.00
43119;BME280;28729;49.838;8.650;2023-04-01T21:05:22;98730.38;;;9.85;100.00
43119;BME280;28729;49.838;8.650;2023-04-01T21:09:39;98727.31;;;9.86;100.00
43119;BME280;28729;49.838;8.650;2023-04-01T21:18:02;98752.06;;;9.81;100.00
43119;BME280;28729;49.838;8.650;2023-04-01T21:22:33;98752.06;;;9.81;100.00
43119;BME280;28729;49.838;8.650;2023-04-01T21:30:55;98770.78;;;9.79;100.00
43119;BME280;28729;49.838;8.650;2023-04-01T21:35:11;98773.25;;;9.80;100.00
43119;BME280;28729;49.838;8.650;2023-04-01T21:44:52;98788.41;;;9.83;100.00
43119;BME280;28729;49.838;8.650;2023-04-01T22:10:35;98810.66;;;9.76;100.00
43119;BME280;28729;49.838;8.650;2023-04-01T22:23:39;98821.09;;;9.74;100.00
43119;BME280;28729;49.838;8.650;2023-04-01T22:27:52;98820.81;;;9.71;100.00
43119;BME280;28729;49.838;8.650;2023-04-01T22:32:24;98824.69;;;9.75;100.00
43119;BME280;28729;49.838;8.650;2023-04-01T22:40:53;98836.78;;;9.74;100.00
43119;BME280;28729;49.838;8.650;2023-04-01T22:49:21;98843.94;;;9.75;100.00
43119;BME280;28729;49.838;8.650;2023-04-01T22:53:54;98848.88;;;9.68;100.00
43119;BME280;28729;49.838;8.650;2023-04-01T22:58:13;98855.69;;;9.60;100.00
43119;BME280;28729;49.838;8.650;2023-04-01T23:02:20;98863.59;;;9.46;100.00
43119;BME280;28729;49.838;8.650;2023-04-01T23:06:34;98864.34;;;9.31;100.00
43119;BME280;28729;49.838;8.650;2023-04-01T23:10:42;98865.06;;;9.17;100.00
43119;BME280;28729;49.838;8.650;2023-04-01T23:14:55;98870.50;;;9.11;100.00
43119;BME280;28729;49.838;8.650;2023-04-01T23:19:19;98875.72;;;9.08;100.00
43119;BME280;28729;49.838;8.650;2023-04-01T23:23:43;98882.59;;;9.10;100.00
43119;BME280;28729;49.838;8.650;2023-04-01T23:27:51;98887.47;;;9.03;100.00
43119;BME280;28729;49.838;8.650;2023-04-01T23:32:00;98892.44;;;9.01;100.00
43119;BME280;28729;49.838;8.650;2023-04-01T23:36:11;98899.81;;;9.01;100.00
43119;BME280;28729;49.838;8.650;2023-04-01T23:40:14;98903.88;;;8.93;100.00
43119;BME280;28729;49.838;8.650;2023-04-01T23:44:16;98913.72;;;8.89;100.00
43119;BME280;28729;49.838;8.650;2023-04-01T23:48:19;98915.41;;;8.90;100.00
43119;BME280;28729;49.838;8.650;2023-04-01T23:52:27;98917.94;;;8.97;100.00
43119;BME280;28729;49.838;8.650;2023-04-01T23:56:41;98915.75;;;8.99;100.00
